sensor_id;sensor_type;location;lat;lon;timestamp;P1;durP1;ratioP1;P2;durP2;ratioP2
65187;SDS011;51775;51.148;6.950;2022-09-25T00:00:40;3.28;;;2.20;;
65187;SDS011;51775;51.148;6.950;2022-09-25T00:03:07;3.30;;;2.10;;
65187;SDS011;51775;51.148;6.950;2022-09-25T00:05:36;2.58;;;1.80;;
65187;SDS011;51775;51.148;6.950;2022-09-25T00:08:03;3.00;;;2.00;;
65187;SDS011;51775;51.148;6.950;2022-09-25T00:10:29;3.00;;;2.20;;
65187;SDS011;51775;51.148;6.950;2022-09-25T00:12:54;3.20;;;2.22;;
65187;SDS011;51775;51.148;6.950;2022-09-25T00:15:20;3.00;;;2.10;;
65187;SDS011;51775;51.148;6.950;2022-09-25T00:17:45;3.35;;;2.03;;
65187;SDS011;51775;51.148;6.950;2022-09-25T00:20:12;2.95;;;2.10;;
65187;SDS011;51775;51.148;6.950;2022-09-25T00:22:39;2.78;;;1.85;;
65187;SDS011;51775;51.148;6.950;2022-09-25T00:25:04;3.20;;;2.10;;
65187;SDS011;51775;51.148;6.950;2022-09-25T00:27:30;3.00;;;2.00;;
65187;SDS011;51775;51.148;6.950;2022-09-25T00:29:55;2.90;;;2.03;;
65187;SDS011;51775;51.148;6.950;2022-09-25T00:32:20;2.90;;;2.00;;
65187;SDS011;51775;51.148;6.950;2022-09-25T00:34:45;2.63;;;1.80;;
65187;SDS011;51775;51.148;6.950;2022-09-25T00:37:11;2.88;;;2.10;;
65187;SDS011;51775;51.148;6.950;2022-09-25T00:39:36;3.10;;;2.10;;
65187;SDS011;51775;51.148;6.950;2022-09-25T00:42:01;2.83;;;1.90;;
65187;SDS011;51775;51.148;6.950;2022-09-25T00:52:47;2.60;;;1.83;;
65187;SDS011;51775;51.148;6.950;2022-09-25T00:55:13;2.83;;;1.90;;
65187;SDS011;51775;51.148;6.950;2022-09-25T00:57:39;2.47;;;1.70;;
65187;SDS011;51775;51.148;6.950;2022-09-25T01:00:10;2.83;;;1.90;;
65187;SDS011;51775;51.148;6.950;2022-09-25T01:02:41;3.38;;;1.92;;
65187;SDS011;51775;51.148;6.950;2022-09-25T01:05:11;2.85;;;1.80;;
65187;SDS011;51775;51.148;6.950;2022-09-25T01:07:43;2.55;;;1.70;;
65187;SDS011;51775;51.148;6.950;2022-09-25T01:10:11;2.85;;;1.88;;
65187;SDS011;51775;51.148;6.950;2022-09-25T01:12:39;2.80;;;1.90;;
65187;SDS011;51775;51.148;6.950;2022-09-25T01:15:07;2.40;;;1.60;;
65187;SDS011;51775;51.148;6.950;2022-09-25T01:17:36;2.70;;;1.70;;
65187;SDS011;51775;51.148;6.950;2022-09-25T01:31:03;2.85;;;1.85;;
65187;SDS011;51775;51.148;6.950;2022-09-25T01:33:49;2.78;;;1.70;;
65187;SDS011;51775;51.148;6.950;2022-09-25T01:36:32;2.92;;;1.80;;
65187;SDS011;51775;51.148;6.950;2022-09-25T01:39:06;2.78;;;1.77;;
65187;SDS011;51775;51.148;6.950;2022-09-25T01:41:40;1.98;;;1.40;;
65187;SDS011;51775;51.148;6.950;2022-09-25T01:44:11;2.65;;;1.70;;
65187;SDS011;51775;51.148;6.950;2022-09-25T01:46:50;2.75;;;1.70;;
65187;SDS011;51775;51.148;6.950;2022-09-25T01:49:19;2.67;;;1.65;;
65187;SDS011;51775;51.148;6.950;2022-09-25T01:51:52;2.35;;;1.65;;
65187;SDS011;51775;51.148;6.950;2022-09-25T01:54:32;2.40;;;1.60;;
65187;SDS011;51775;51.148;6.950;2022-09-25T01:57:06;2.20;;;1.50;;
65187;SDS011;51775;51.148;6.950;2022-09-25T01:59:38;2.55;;;1.63;;
65187;SDS011;51775;51.148;6.950;2022-09-25T02:02:08;2.75;;;1.50;;
65187;SDS011;51775;51.148;6.950;2022-09-25T02:04:37;2.22;;;1.50;;
65187;SDS011;51775;51.148;6.950;2022-09-25T02:07:07;2.38;;;1.70;;
65187;SDS011;51775;51.148;6.950;2022-09-25T02:09:39;2.70;;;1.60;;
65187;SDS011;51775;51.148;6.950;2022-09-25T02:12:10;2.40;;;1.45;;
65187;SDS011;51775;51.148;6.950;2022-09-25T02:14:58;2.50;;;1.70;;
65187;SDS011;51775;51.148;6.950;2022-09-25T02:17:34;2.88;;;1.58;;
65187;SDS011;51775;51.148;6.950;2022-09-25T02:20:05;1.95;;;1.35;;
65187;SDS011;51775;51.148;6.950;2022-09-25T02:22:31;2.30;;;1.42;;
65187;SDS011;51775;51.148;6.950;2022-09-25T02:25:03;2.10;;;1.40;;
65187;SDS011;51775;51.148;6.950;2022-09-25T02:27:34;2.47;;;1.50;;
65187;SDS011;51775;51.148;6.950;2022-09-25T02:30:00;2.13;;;1.40;;
65187;SDS011;51775;51.148;6.950;2022-09-25T02:32:27;2.55;;;1.50;;
65187;SDS011;51775;51.148;6.950;2022-09-25T02:34:54;1.83;;;1.30;;
65187;SDS011;51775;51.148;6.950;2022-09-25T02:37:20;1.83;;;1.30;;
65187;SDS011;51775;51.148;6.950;2022-09-25T02:39:47;2.40;;;1.50;;
65187;SDS011;51775;51.148;6.950;2022-09-25T02:45:19;1.75;;;1.35;;
65187;SDS011;51775;51.148;6.950;2022-09-25T02:50:35;1.80;;;1.20;;
65187;SDS011;51775;51.148;6.950;2022-09-25T02:53:15;2.20;;;1.23;;
65187;SDS011;51775;51.148;6.950;2022-09-25T02:55:49;1.75;;;1.30;;
65187;SDS011;51775;51.148;6.950;2022-09-25T02:58:19;2.17;;;1.38;;
65187;SDS011;51775;51.148;6.950;2022-09-25T03:00:50;2.30;;;1.23;;
65187;SDS011;51775;51.148;6.950;2022-09-25T03:03:17;1.85;;;1.23;;
65187;SDS011;51775;51.148;6.950;2022-09-25T03:05:45;1.70;;;1.20;;
65187;SDS011;51775;51.148;6.950;2022-09-25T03:08:12;1.90;;;1.30;;
65187;SDS011;51775;51.148;6.950;2022-09-25T03:10:38;1.85;;;1.40;;
65187;SDS011;51775;51.148;6.950;2022-09-25T03:13:14;1.73;;;1.20;;
65187;SDS011;51775;51.148;6.950;2022-09-25T03:15:51;1.73;;;1.30;;
65187;SDS011;51775;51.148;6.950;2022-09-25T03:18:23;2.03;;;1.10;;
65187;SDS011;51775;51.148;6.950;2022-09-25T03:20:49;1.92;;;1.20;;
65187;SDS011;51775;51.148;6.950;2022-09-25T03:23:14;2.00;;;1.10;;
65187;SDS011;51775;51.148;6.950;2022-09-25T03:25:39;2.13;;;1.30;;
65187;SDS011;51775;51.148;6.950;2022-09-25T03:28:08;1.50;;;1.10;;
65187;SDS011;51775;51.148;6.950;2022-09-25T03:30:34;1.88;;;1.15;;
65187;SDS011;51775;51.148;6.950;2022-09-25T03:32:59;1.70;;;1.10;;
65187;SDS011;51775;51.148;6.950;2022-09-25T03:35:24;1.95;;;1.23;;
65187;SDS011;51775;51.148;6.950;2022-09-25T03:37:50;1.70;;;1.10;;
65187;SDS011;51775;51.148;6.950;2022-09-25T03:40:15;1.95;;;1.10;;
65187;SDS011;51775;51.148;6.950;2022-09-25T03:42:40;1.30;;;0.90;;
65187;SDS011;51775;51.148;6.950;2022-09-25T03:45:05;1.90;;;1.17;;
65187;SDS011;51775;51.148;6.950;2022-09-25T03:47:31;1.48;;;0.95;;
65187;SDS011;51775;51.148;6.950;2022-09-25T03:49:56;1.35;;;1.00;;
65187;SDS011;51775;51.148;6.950;2022-09-25T03:52:21;1.30;;;1.00;;
65187;SDS011;51775;51.148;6.950;2022-09-25T03:54:47;1.50;;;1.10;;
65187;SDS011;51775;51.148;6.950;2022-09-25T03:57:12;1.83;;;1.00;;
65187;SDS011;51775;51.148;6.950;2022-09-25T03:59:37;1.42;;;1.00;;
65187;SDS011;51775;51.148;6.950;2022-09-25T04:02:02;1.50;;;1.00;;
65187;SDS011;51775;51.148;6.950;2022-09-25T04:04:28;1.48;;;1.00;;
65187;SDS011;51775;51.148;6.950;2022-09-25T04:06:53;1.55;;;0.90;;
65187;SDS011;51775;51.148;6.950;2022-09-25T04:09:18;1.47;;;1.00;;
65187;SDS011;51775;51.148;6.950;2022-09-25T04:11:43;1.42;;;0.90;;
65187;SDS011;51775;51.148;6.950;2022-09-25T04:14:09;1.30;;;1.00;;
65187;SDS011;51775;51.148;6.950;2022-09-25T04:16:34;1.23;;;1.00;;
65187;SDS011;51775;51.148;6.950;2022-09-25T04:18:59;1.08;;;0.80;;
65187;SDS011;51775;51.148;6.950;2022-09-25T04:21:24;1.50;;;1.00;;
65187;SDS011;51775;51.148;6.950;2022-09-25T04:23:50;1.73;;;1.05;;
65187;SDS011;51775;51.148;6.950;2022-09-25T04:26:15;1.35;;;1.00;;
65187;SDS011;51775;51.148;6.950;2022-09-25T04:28:40;1.30;;;0.90;;
65187;SDS011;51775;51.148;6.950;2022-09-25T04:31:06;2.38;;;0.95;;
65187;SDS011;51775;51.148;6.950;2022-09-25T04:33:31;1.50;;;0.93;;
65187;SDS011;51775;51.148;6.950;2022-09-25T04:35:56;1.42;;;1.15;;
65187;SDS011;51775;51.148;6.950;2022-09-25T04:38:21;1.40;;;0.90;;
65187;SDS011;51775;51.148;6.950;2022-09-25T04:40:47;1.27;;;1.00;;
65187;SDS011;51775;51.148;6.950;2022-09-25T04:43:12;1.27;;;0.90;;
65187;SDS011;51775;51.148;6.950;2022-09-25T04:45:38;1.35;;;0.80;;
65187;SDS011;51775;51.148;6.950;2022-09-25T04:48:03;2.08;;;1.10;;
65187;SDS011;51775;51.148;6.950;2022-09-25T04:50:29;1.52;;;1.10;;
65187;SDS011;51775;51.148;6.950;2022-09-25T04:52:55;1.58;;;0.95;;
65187;SDS011;51775;51.148;6.950;2022-09-25T04:55:22;1.58;;;0.95;;
65187;SDS011;51775;51.148;6.950;2022-09-25T04:57:54;1.52;;;0.98;;
65187;SDS011;51775;51.148;6.950;2022-09-25T05:00:25;1.00;;;0.77;;
65187;SDS011;51775;51.148;6.950;2022-09-25T05:02:52;1.42;;;0.85;;
65187;SDS011;51775;51.148;6.950;2022-09-25T05:05:17;1.77;;;0.93;;
65187;SDS011;51775;51.148;6.950;2022-09-25T05:07:50;1.20;;;0.90;;
65187;SDS011;51775;51.148;6.950;2022-09-25T05:10:26;1.50;;;0.90;;
65187;SDS011;51775;51.148;6.950;2022-09-25T05:12:57;1.13;;;0.80;;
65187;SDS011;51775;51.148;6.950;2022-09-25T05:15:24;1.10;;;0.80;;
65187;SDS011;51775;51.148;6.950;2022-09-25T05:18:38;0.60;;;0.60;;
65187;SDS011;51775;51.148;6.950;2022-09-25T05:20:42;1.10;;;0.73;;
65187;SDS011;51775;51.148;6.950;2022-09-25T05:23:07;1.20;;;0.80;;
65187;SDS011;51775;51.148;6.950;2022-09-25T05:25:33;1.35;;;0.90;;
65187;SDS011;51775;51.148;6.950;2022-09-25T05:27:59;1.10;;;0.80;;
65187;SDS011;51775;51.148;6.950;2022-09-25T05:30:26;1.42;;;0.80;;
65187;SDS011;51775;51.148;6.950;2022-09-25T05:32:55;1.40;;;0.80;;
65187;SDS011;51775;51.148;6.950;2022-09-25T05:35:21;1.13;;;0.60;;
65187;SDS011;51775;51.148;6.950;2022-09-25T05:37:47;1.02;;;0.77;;
65187;SDS011;51775;51.148;6.950;2022-09-25T05:40:13;1.35;;;0.75;;
65187;SDS011;51775;51.148;6.950;2022-09-25T05:42:39;1.10;;;0.70;;
65187;SDS011;51775;51.148;6.950;2022-09-25T05:45:05;1.00;;;0.70;;
65187;SDS011;51775;51.148;6.950;2022-09-25T05:47:31;0.95;;;0.60;;
65187;SDS011;51775;51.148;6.950;2022-09-25T05:49:56;0.70;;;0.60;;
65187;SDS011;51775;51.148;6.950;2022-09-25T05:52:22;1.52;;;0.70;;
65187;SDS011;51775;51.148;6.950;2022-09-25T05:54:47;1.48;;;0.70;;
65187;SDS011;51775;51.148;6.950;2022-09-25T05:57:12;1.52;;;0.80;;
65187;SDS011;51775;51.148;6.950;2022-09-25T05:59:37;2.15;;;0.70;;
65187;SDS011;51775;51.148;6.950;2022-09-25T06:02:03;0.90;;;0.60;;
65187;SDS011;51775;51.148;6.950;2022-09-25T06:04:28;0.70;;;0.55;;
65187;SDS011;51775;51.148;6.950;2022-09-25T06:06:53;0.77;;;0.57;;
65187;SDS011;51775;51.148;6.950;2022-09-25T06:09:19;1.02;;;0.70;;
65187;SDS011;51775;51.148;6.950;2022-09-25T06:11:44;2.63;;;0.70;;
65187;SDS011;51775;51.148;6.950;2022-09-25T06:14:09;1.33;;;0.60;;
65187;SDS011;51775;51.148;6.950;2022-09-25T06:16:34;0.75;;;0.60;;
65187;SDS011;51775;51.148;6.950;2022-09-25T06:19:00;0.73;;;0.55;;
65187;SDS011;51775;51.148;6.950;2022-09-25T06:21:25;1.05;;;0.70;;
65187;SDS011;51775;51.148;6.950;2022-09-25T06:23:50;3.88;;;0.80;;
65187;SDS011;51775;51.148;6.950;2022-09-25T06:26:15;1.20;;;0.60;;
65187;SDS011;51775;51.148;6.950;2022-09-25T06:28:41;1.25;;;0.70;;
65187;SDS011;51775;51.148;6.950;2022-09-25T06:31:06;1.15;;;0.60;;
65187;SDS011;51775;51.148;6.950;2022-09-25T06:33:31;1.42;;;0.70;;
65187;SDS011;51775;51.148;6.950;2022-09-25T06:35:57;0.88;;;0.60;;
65187;SDS011;51775;51.148;6.950;2022-09-25T06:38:22;1.02;;;0.70;;
65187;SDS011;51775;51.148;6.950;2022-09-25T06:40:47;12.55;;;9.27;;
65187;SDS011;51775;51.148;6.950;2022-09-25T06:43:13;16.33;;;11.43;;
65187;SDS011;51775;51.148;6.950;2022-09-25T06:45:40;12.80;;;9.70;;
65187;SDS011;51775;51.148;6.950;2022-09-25T06:48:06;11.70;;;8.50;;
65187;SDS011;51775;51.148;6.950;2022-09-25T06:50:45;10.75;;;8.05;;
65187;SDS011;51775;51.148;6.950;2022-09-25T06:53:12;11.07;;;7.53;;
65187;SDS011;51775;51.148;6.950;2022-09-25T06:55:39;9.43;;;7.10;;
65187;SDS011;51775;51.148;6.950;2022-09-25T06:58:05;10.43;;;6.82;;
65187;SDS011;51775;51.148;6.950;2022-09-25T07:00:32;12.27;;;7.15;;
65187;SDS011;51775;51.148;6.950;2022-09-25T07:02:58;18.17;;;8.13;;
65187;SDS011;51775;51.148;6.950;2022-09-25T07:05:24;12.80;;;7.00;;
65187;SDS011;51775;51.148;6.950;2022-09-25T07:07:49;11.55;;;6.28;;
65187;SDS011;51775;51.148;6.950;2022-09-25T07:10:14;11.57;;;6.10;;
65187;SDS011;51775;51.148;6.950;2022-09-25T07:12:40;10.60;;;5.93;;
65187;SDS011;51775;51.148;6.950;2022-09-25T07:15:06;8.68;;;5.32;;
65187;SDS011;51775;51.148;6.950;2022-09-25T07:17:33;9.32;;;4.90;;
65187;SDS011;51775;51.148;6.950;2022-09-25T07:19:58;6.57;;;4.40;;
65187;SDS011;51775;51.148;6.950;2022-09-25T07:22:23;8.45;;;4.40;;
65187;SDS011;51775;51.148;6.950;2022-09-25T07:24:48;6.50;;;4.03;;
65187;SDS011;51775;51.148;6.950;2022-09-25T07:27:14;8.00;;;4.45;;
65187;SDS011;51775;51.148;6.950;2022-09-25T07:29:39;5.90;;;3.80;;
65187;SDS011;51775;51.148;6.950;2022-09-25T07:32:04;5.55;;;3.53;;
65187;SDS011;51775;51.148;6.950;2022-09-25T07:34:30;5.88;;;3.50;;
65187;SDS011;51775;51.148;6.950;2022-09-25T07:36:55;7.85;;;3.55;;
65187;SDS011;51775;51.148;6.950;2022-09-25T07:39:20;5.97;;;3.30;;
65187;SDS011;51775;51.148;6.950;2022-09-25T07:41:45;6.40;;;3.45;;
65187;SDS011;51775;51.148;6.950;2022-09-25T07:44:11;6.07;;;2.90;;
65187;SDS011;51775;51.148;6.950;2022-09-25T07:46:36;9.07;;;3.40;;
65187;SDS011;51775;51.148;6.950;2022-09-25T07:49:01;7.40;;;3.28;;
65187;SDS011;51775;51.148;6.950;2022-09-25T07:51:27;5.18;;;3.00;;
65187;SDS011;51775;51.148;6.950;2022-09-25T07:53:52;5.68;;;3.05;;
65187;SDS011;51775;51.148;6.950;2022-09-25T07:56:17;6.18;;;3.03;;
65187;SDS011;51775;51.148;6.950;2022-09-25T07:58:42;3.65;;;2.70;;
65187;SDS011;51775;51.148;6.950;2022-09-25T08:01:09;6.85;;;2.90;;
65187;SDS011;51775;51.148;6.950;2022-09-25T08:03:36;4.38;;;2.70;;
65187;SDS011;51775;51.148;6.950;2022-09-25T08:06:02;4.78;;;3.08;;
65187;SDS011;51775;51.148;6.950;2022-09-25T08:08:32;6.00;;;2.95;;
65187;SDS011;51775;51.148;6.950;2022-09-25T08:11:02;5.15;;;2.53;;
65187;SDS011;51775;51.148;6.950;2022-09-25T08:13:30;5.50;;;2.53;;
65187;SDS011;51775;51.148;6.950;2022-09-25T08:15:56;5.53;;;3.08;;
65187;SDS011;51775;51.148;6.950;2022-09-25T08:18:21;5.20;;;2.70;;
65187;SDS011;51775;51.148;6.950;2022-09-25T08:20:46;4.20;;;2.60;;
65187;SDS011;51775;51.148;6.950;2022-09-25T08:23:11;4.53;;;2.70;;
65187;SDS011;51775;51.148;6.950;2022-09-25T08:25:37;5.97;;;2.80;;
65187;SDS011;51775;51.148;6.950;2022-09-25T08:28:02;5.50;;;2.70;;
65187;SDS011;51775;51.148;6.950;2022-09-25T08:30:27;4.00;;;2.50;;
65187;SDS011;51775;51.148;6.950;2022-09-25T08:32:52;5.32;;;2.75;;
65187;SDS011;51775;51.148;6.950;2022-09-25T08:35:18;4.35;;;2.83;;
65187;SDS011;51775;51.148;6.950;2022-09-25T08:37:43;5.60;;;2.58;;
65187;SDS011;51775;51.148;6.950;2022-09-25T08:40:15;5.15;;;2.88;;
65187;SDS011;51775;51.148;6.950;2022-09-25T08:42:45;4.35;;;2.30;;
65187;SDS011;51775;51.148;6.950;2022-09-25T08:45:36;4.03;;;2.30;;
65187;SDS011;51775;51.148;6.950;2022-09-25T08:48:06;3.22;;;2.30;;
65187;SDS011;51775;51.148;6.950;2022-09-25T08:50:36;4.10;;;2.30;;
65187;SDS011;51775;51.148;6.950;2022-09-25T08:53:05;3.63;;;2.10;;
65187;SDS011;51775;51.148;6.950;2022-09-25T08:55:39;3.08;;;1.90;;
65187;SDS011;51775;51.148;6.950;2022-09-25T08:58:05;3.28;;;1.98;;
65187;SDS011;51775;51.148;6.950;2022-09-25T09:00:32;3.65;;;2.00;;
65187;SDS011;51775;51.148;6.950;2022-09-25T09:02:57;4.35;;;2.22;;
65187;SDS011;51775;51.148;6.950;2022-09-25T09:05:24;3.53;;;2.10;;
65187;SDS011;51775;51.148;6.950;2022-09-25T09:07:58;3.83;;;1.70;;
65187;SDS011;51775;51.148;6.950;2022-09-25T09:10:29;4.65;;;2.30;;
65187;SDS011;51775;51.148;6.950;2022-09-25T09:13:04;3.15;;;1.98;;
65187;SDS011;51775;51.148;6.950;2022-09-25T09:15:39;3.53;;;1.90;;
65187;SDS011;51775;51.148;6.950;2022-09-25T09:18:32;3.55;;;1.80;;
65187;SDS011;51775;51.148;6.950;2022-09-25T09:26:49;3.72;;;1.88;;
65187;SDS011;51775;51.148;6.950;2022-09-25T09:37:50;3.13;;;1.70;;
65187;SDS011;51775;51.148;6.950;2022-09-25T09:48:49;4.63;;;1.60;;
65187;SDS011;51775;51.148;6.950;2022-09-25T09:51:23;2.55;;;1.50;;
65187;SDS011;51775;51.148;6.950;2022-09-25T09:54:07;2.65;;;1.65;;
65187;SDS011;51775;51.148;6.950;2022-09-25T09:56:36;3.20;;;1.50;;
65187;SDS011;51775;51.148;6.950;2022-09-25T10:01:38;2.25;;;1.38;;
65187;SDS011;51775;51.148;6.950;2022-09-25T10:04:08;3.40;;;1.55;;
65187;SDS011;51775;51.148;6.950;2022-09-25T10:06:36;2.38;;;1.40;;
65187;SDS011;51775;51.148;6.950;2022-09-25T10:09:03;2.78;;;1.60;;
65187;SDS011;51775;51.148;6.950;2022-09-25T10:11:29;3.17;;;1.33;;
65187;SDS011;51775;51.148;6.950;2022-09-25T10:13:56;2.35;;;1.42;;
65187;SDS011;51775;51.148;6.950;2022-09-25T10:16:22;2.75;;;1.70;;
65187;SDS011;51775;51.148;6.950;2022-09-25T10:18:50;2.45;;;1.42;;
65187;SDS011;51775;51.148;6.950;2022-09-25T10:38:02;2.72;;;1.45;;
65187;SDS011;51775;51.148;6.950;2022-09-25T10:40:37;2.95;;;1.30;;
65187;SDS011;51775;51.148;6.950;2022-09-25T10:43:04;3.25;;;1.20;;
65187;SDS011;51775;51.148;6.950;2022-09-25T10:45:39;2.25;;;1.25;;
65187;SDS011;51775;51.148;6.950;2022-09-25T10:48:25;2.58;;;1.20;;
65187;SDS011;51775;51.148;6.950;2022-09-25T10:51:05;3.22;;;1.27;;
65187;SDS011;51775;51.148;6.950;2022-09-25T10:53:31;2.63;;;1.20;;
65187;SDS011;51775;51.148;6.950;2022-09-25T10:55:59;2.38;;;1.27;;
65187;SDS011;51775;51.148;6.950;2022-09-25T10:58:31;2.78;;;0.98;;
65187;SDS011;51775;51.148;6.950;2022-09-25T11:01:01;3.60;;;1.30;;
65187;SDS011;51775;51.148;6.950;2022-09-25T11:03:28;1.90;;;1.10;;
65187;SDS011;51775;51.148;6.950;2022-09-25T11:05:59;1.63;;;1.00;;
65187;SDS011;51775;51.148;6.950;2022-09-25T11:08:26;1.77;;;1.08;;
65187;SDS011;51775;51.148;6.950;2022-09-25T11:10:55;6.07;;;1.52;;
65187;SDS011;51775;51.148;6.950;2022-09-25T11:13:24;3.05;;;1.30;;
65187;SDS011;51775;51.148;6.950;2022-09-25T11:15:51;2.95;;;1.05;;
65187;SDS011;51775;51.148;6.950;2022-09-25T11:18:35;2.78;;;1.20;;
65187;SDS011;51775;51.148;6.950;2022-09-25T11:21:02;2.35;;;1.10;;
65187;SDS011;51775;51.148;6.950;2022-09-25T11:23:32;3.65;;;1.30;;
65187;SDS011;51775;51.148;6.950;2022-09-25T11:26:07;5.50;;;1.60;;
65187;SDS011;51775;51.148;6.950;2022-09-25T11:28:39;4.28;;;1.75;;
65187;SDS011;51775;51.148;6.950;2022-09-25T11:36:40;12.18;;;3.42;;
65187;SDS011;51775;51.148;6.950;2022-09-25T11:39:11;13.05;;;3.88;;
65187;SDS011;51775;51.148;6.950;2022-09-25T11:41:48;15.95;;;4.13;;
65187;SDS011;51775;51.148;6.950;2022-09-25T11:44:30;13.95;;;4.25;;
65187;SDS011;51775;51.148;6.950;2022-09-25T11:47:15;15.57;;;4.05;;
65187;SDS011;51775;51.148;6.950;2022-09-25T11:49:48;12.65;;;4.25;;
65187;SDS011;51775;51.148;6.950;2022-09-25T12:01:01;11.68;;;3.38;;
65187;SDS011;51775;51.148;6.950;2022-09-25T12:03:41;10.98;;;3.22;;
65187;SDS011;51775;51.148;6.950;2022-09-25T12:09:34;11.77;;;3.17;;
65187;SDS011;51775;51.148;6.950;2022-09-25T12:20:31;6.03;;;2.28;;
65187;SDS011;51775;51.148;6.950;2022-09-25T12:26:28;6.20;;;2.42;;
65187;SDS011;51775;51.148;6.950;2022-09-25T12:29:15;5.38;;;2.20;;
65187;SDS011;51775;51.148;6.950;2022-09-25T12:39:49;7.65;;;1.85;;
65187;SDS011;51775;51.148;6.950;2022-09-25T12:42:37;5.60;;;2.00;;
65187;SDS011;51775;51.148;6.950;2022-09-25T12:50:37;5.47;;;1.90;;
65187;SDS011;51775;51.148;6.950;2022-09-25T12:53:33;4.57;;;1.85;;
65187;SDS011;51775;51.148;6.950;2022-09-25T13:01:21;4.03;;;1.40;;
65187;SDS011;51775;51.148;6.950;2022-09-25T13:03:57;4.35;;;1.80;;
65187;SDS011;51775;51.148;6.950;2022-09-25T13:09:01;3.97;;;1.60;;
65187;SDS011;51775;51.148;6.950;2022-09-25T13:14:23;4.05;;;1.50;;
65187;SDS011;51775;51.148;6.950;2022-09-25T13:16:50;4.55;;;1.60;;
65187;SDS011;51775;51.148;6.950;2022-09-25T13:19:25;3.53;;;1.50;;
65187;SDS011;51775;51.148;6.950;2022-09-25T13:21:57;3.88;;;1.38;;
65187;SDS011;51775;51.148;6.950;2022-09-25T13:24:24;5.03;;;1.40;;
65187;SDS011;51775;51.148;6.950;2022-09-25T13:26:50;3.30;;;1.33;;
65187;SDS011;51775;51.148;6.950;2022-09-25T13:29:31;4.65;;;1.40;;
65187;SDS011;51775;51.148;6.950;2022-09-25T13:32:15;3.85;;;1.50;;
65187;SDS011;51775;51.148;6.950;2022-09-25T13:34:42;4.03;;;1.25;;
65187;SDS011;51775;51.148;6.950;2022-09-25T13:37:09;4.15;;;1.30;;
65187;SDS011;51775;51.148;6.950;2022-09-25T13:39:37;2.90;;;1.40;;
65187;SDS011;51775;51.148;6.950;2022-09-25T13:55:15;4.00;;;1.30;;
65187;SDS011;51775;51.148;6.950;2022-09-25T14:00:18;4.38;;;1.30;;
65187;SDS011;51775;51.148;6.950;2022-09-25T14:02:44;3.13;;;1.20;;
65187;SDS011;51775;51.148;6.950;2022-09-25T14:05:12;4.07;;;1.10;;
65187;SDS011;51775;51.148;6.950;2022-09-25T14:07:40;3.53;;;1.20;;
65187;SDS011;51775;51.148;6.950;2022-09-25T14:10:07;3.90;;;1.30;;
65187;SDS011;51775;51.148;6.950;2022-09-25T14:12:37;4.20;;;1.40;;
65187;SDS011;51775;51.148;6.950;2022-09-25T14:15:17;2.85;;;1.08;;
65187;SDS011;51775;51.148;6.950;2022-09-25T14:17:47;3.65;;;1.23;;
65187;SDS011;51775;51.148;6.950;2022-09-25T14:20:20;2.75;;;1.13;;
65187;SDS011;51775;51.148;6.950;2022-09-25T14:23:05;3.85;;;1.27;;
65187;SDS011;51775;51.148;6.950;2022-09-25T14:25:50;2.20;;;1.00;;
65187;SDS011;51775;51.148;6.950;2022-09-25T14:31:01;2.53;;;1.10;;
65187;SDS011;51775;51.148;6.950;2022-09-25T14:33:41;4.47;;;1.10;;
65187;SDS011;51775;51.148;6.950;2022-09-25T14:47:40;2.63;;;1.10;;
65187;SDS011;51775;51.148;6.950;2022-09-25T14:50:09;4.22;;;1.42;;
65187;SDS011;51775;51.148;6.950;2022-09-25T14:52:43;2.95;;;1.00;;
65187;SDS011;51775;51.148;6.950;2022-09-25T14:55:11;2.55;;;1.00;;
65187;SDS011;51775;51.148;6.950;2022-09-25T14:57:40;2.85;;;1.10;;
65187;SDS011;51775;51.148;6.950;2022-09-25T15:00:06;3.08;;;1.27;;
65187;SDS011;51775;51.148;6.950;2022-09-25T15:02:40;3.63;;;1.00;;
65187;SDS011;51775;51.148;6.950;2022-09-25T15:05:15;2.25;;;0.98;;
65187;SDS011;51775;51.148;6.950;2022-09-25T15:07:49;2.17;;;0.90;;
65187;SDS011;51775;51.148;6.950;2022-09-25T15:10:35;2.38;;;0.88;;
65187;SDS011;51775;51.148;6.950;2022-09-25T15:13:05;2.30;;;1.00;;
65187;SDS011;51775;51.148;6.950;2022-09-25T15:15:34;2.17;;;0.98;;
65187;SDS011;51775;51.148;6.950;2022-09-25T15:18:02;1.70;;;0.98;;
65187;SDS011;51775;51.148;6.950;2022-09-25T15:20:29;1.67;;;0.85;;
65187;SDS011;51775;51.148;6.950;2022-09-25T15:23:06;2.45;;;1.00;;
65187;SDS011;51775;51.148;6.950;2022-09-25T15:25:38;2.28;;;0.90;;
65187;SDS011;51775;51.148;6.950;2022-09-25T15:28:07;2.78;;;1.00;;
65187;SDS011;51775;51.148;6.950;2022-09-25T15:30:36;2.35;;;0.80;;
65187;SDS011;51775;51.148;6.950;2022-09-25T15:33:02;2.40;;;0.95;;
65187;SDS011;51775;51.148;6.950;2022-09-25T15:35:27;2.45;;;1.02;;
65187;SDS011;51775;51.148;6.950;2022-09-25T15:38:12;2.85;;;1.00;;
65187;SDS011;51775;51.148;6.950;2022-09-25T15:40:38;3.70;;;1.08;;
65187;SDS011;51775;51.148;6.950;2022-09-25T15:43:13;2.70;;;0.80;;
65187;SDS011;51775;51.148;6.950;2022-09-25T15:45:43;2.63;;;0.85;;
65187;SDS011;51775;51.148;6.950;2022-09-25T15:50:43;3.22;;;1.00;;
65187;SDS011;51775;51.148;6.950;2022-09-25T15:53:15;2.63;;;0.90;;
65187;SDS011;51775;51.148;6.950;2022-09-25T15:56:03;2.63;;;1.00;;
65187;SDS011;51775;51.148;6.950;2022-09-25T15:58:31;1.85;;;0.80;;
65187;SDS011;51775;51.148;6.950;2022-09-25T16:01:05;2.03;;;0.90;;
65187;SDS011;51775;51.148;6.950;2022-09-25T16:03:30;1.95;;;1.00;;
65187;SDS011;51775;51.148;6.950;2022-09-25T16:05:56;3.38;;;1.00;;
65187;SDS011;51775;51.148;6.950;2022-09-25T16:13:48;2.65;;;0.90;;
65187;SDS011;51775;51.148;6.950;2022-09-25T16:16:25;1.90;;;0.82;;
65187;SDS011;51775;51.148;6.950;2022-09-25T16:18:51;1.65;;;0.90;;
65187;SDS011;51775;51.148;6.950;2022-09-25T16:21:18;2.00;;;0.80;;
65187;SDS011;51775;51.148;6.950;2022-09-25T16:23:58;3.85;;;0.90;;
65187;SDS011;51775;51.148;6.950;2022-09-25T16:26:39;1.88;;;0.80;;
65187;SDS011;51775;51.148;6.950;2022-09-25T16:31:37;1.73;;;0.80;;
65187;SDS011;51775;51.148;6.950;2022-09-25T16:34:04;1.95;;;0.90;;
65187;SDS011;51775;51.148;6.950;2022-09-25T16:36:40;2.08;;;1.05;;
65187;SDS011;51775;51.148;6.950;2022-09-25T16:41:31;1.70;;;0.80;;
65187;SDS011;51775;51.148;6.950;2022-09-25T16:46:46;1.73;;;0.88;;
65187;SDS011;51775;51.148;6.950;2022-09-25T16:49:28;1.80;;;0.80;;
65187;SDS011;51775;51.148;6.950;2022-09-25T16:51:54;1.90;;;0.80;;
65187;SDS011;51775;51.148;6.950;2022-09-25T16:54:20;2.67;;;0.65;;
65187;SDS011;51775;51.148;6.950;2022-09-25T16:56:47;1.48;;;0.68;;
65187;SDS011;51775;51.148;6.950;2022-09-25T16:59:16;1.92;;;0.85;;
65187;SDS011;51775;51.148;6.950;2022-09-25T17:01:46;0.77;;;0.60;;
65187;SDS011;51775;51.148;6.950;2022-09-25T17:04:13;4.55;;;0.90;;
65187;SDS011;51775;51.148;6.950;2022-09-25T17:06:39;2.28;;;0.77;;
65187;SDS011;51775;51.148;6.950;2022-09-25T17:09:07;2.17;;;0.80;;
65187;SDS011;51775;51.148;6.950;2022-09-25T17:11:35;1.45;;;0.70;;
65187;SDS011;51775;51.148;6.950;2022-09-25T17:14:00;1.80;;;0.70;;
65187;SDS011;51775;51.148;6.950;2022-09-25T17:16:26;1.80;;;0.70;;
65187;SDS011;51775;51.148;6.950;2022-09-25T17:18:51;1.83;;;0.77;;
65187;SDS011;51775;51.148;6.950;2022-09-25T17:21:16;1.55;;;0.75;;
65187;SDS011;51775;51.148;6.950;2022-09-25T17:23:42;3.22;;;0.70;;
65187;SDS011;51775;51.148;6.950;2022-09-25T17:26:18;2.47;;;0.82;;
65187;SDS011;51775;51.148;6.950;2022-09-25T17:28:45;1.02;;;0.68;;
65187;SDS011;51775;51.148;6.950;2022-09-25T17:31:17;1.45;;;0.63;;
65187;SDS011;51775;51.148;6.950;2022-09-25T17:33:45;1.55;;;0.60;;
65187;SDS011;51775;51.148;6.950;2022-09-25T17:36:11;1.13;;;0.60;;
65187;SDS011;51775;51.148;6.950;2022-09-25T17:38:37;2.08;;;0.75;;
65187;SDS011;51775;51.148;6.950;2022-09-25T17:41:06;2.38;;;0.77;;
65187;SDS011;51775;51.148;6.950;2022-09-25T17:43:37;1.37;;;0.70;;
65187;SDS011;51775;51.148;6.950;2022-09-25T17:46:02;2.10;;;0.80;;